createdAt,value
2022-09-07T00:01:01.053Z,3.63
2022-09-07T00:03:28.330Z,9.30
2022-09-07T00:05:55.622Z,20.75
2022-09-07T00:08:25.559Z,1.75
2022-09-07T00:11:00.595Z,5.97
2022-09-07T00:13:31.934Z,1.70
2022-09-07T00:15:59.310Z,3.25
2022-09-07T00:18:26.153Z,8.52
2022-09-07T00:21:04.747Z,2.85
2022-09-07T00:23:32.271Z,1.98
2022-09-07T00:26:04.878Z,7.88
2022-09-07T00:28:32.381Z,1.23
2022-09-07T00:30:59.152Z,1.73
2022-09-07T00:33:26.182Z,1.00
2022-09-07T00:35:53.738Z,3.13
2022-09-07T00:38:20.590Z,1.30
2022-09-07T00:40:47.307Z,1.50
2022-09-07T00:43:28.184Z,11.27
2022-09-07T00:45:54.846Z,0.75
2022-09-07T00:48:25.798Z,0.60
2022-09-07T00:51:02.160Z,1.50
2022-09-07T00:53:34.559Z,2.63
2022-09-07T00:56:02.877Z,0.90
2022-09-07T00:58:30.877Z,0.80
2022-09-07T01:00:57.672Z,3.47
2022-09-07T01:03:30.917Z,1.48
2022-09-07T01:06:05.346Z,3.17
2022-09-07T01:08:32.861Z,2.42
2022-09-07T01:11:01.039Z,4.38
2022-09-07T01:13:29.780Z,2.25
2022-09-07T01:16:08.521Z,1.83
2022-09-07T01:18:52.333Z,3.85
2022-09-07T01:21:21.398Z,4.45
2022-09-07T01:24:06.561Z,10.20
2022-09-07T01:26:54.020Z,0.73
2022-09-07T01:29:33.630Z,3.10
2022-09-07T01:32:01.363Z,4.85
2022-09-07T01:34:28.423Z,5.47
2022-09-07T01:36:55.016Z,5.32
2022-09-07T01:39:29.070Z,4.60
2022-09-07T01:42:01.387Z,7.13
2022-09-07T01:44:39.827Z,3.40
2022-09-07T01:47:32.608Z,10.30
2022-09-07T01:50:07.589Z,6.90
2022-09-07T01:53:02.556Z,1.90
2022-09-07T01:55:38.766Z,6.10
2022-09-07T01:58:39.720Z,5.18
2022-09-07T02:01:25.435Z,4.30
2022-09-07T02:04:01.062Z,2.83
2022-09-07T02:06:50.243Z,3.75
2022-09-07T02:09:28.612Z,0.95
2022-09-07T02:11:55.694Z,2.70
2022-09-07T02:14:28.655Z,1.75
2022-09-07T02:17:10.739Z,4.65
2022-09-07T02:19:45.137Z,4.05
2022-09-07T02:22:16.498Z,1.80
2022-09-07T02:24:48.757Z,3.92
2022-09-07T02:27:19.299Z,2.40
2022-09-07T02:29:46.160Z,2.03
2022-09-07T02:32:12.858Z,3.65
2022-09-07T02:34:39.670Z,4.75
2022-09-07T02:37:09.333Z,3.35
2022-09-07T02:39:36.064Z,0.70
2022-09-07T02:42:03.079Z,3.65
2022-09-07T02:44:37.050Z,1.35
2022-09-07T02:47:09.641Z,1.83
2022-09-07T02:49:54.186Z,2.22
2022-09-07T02:52:30.426Z,2.45
2022-09-07T02:55:18.784Z,1.40
2022-09-07T02:57:57.178Z,0.95
2022-09-07T03:00:26.119Z,2.25
2022-09-07T03:03:23.460Z,4.53
2022-09-07T03:06:01.627Z,1.42
2022-09-07T03:08:46.920Z,1.60
2022-09-07T03:11:14.492Z,2.13
2022-09-07T03:13:41.287Z,1.17
2022-09-07T03:16:13.116Z,1.75
2022-09-07T03:18:40.388Z,2.08
2022-09-07T03:21:06.980Z,1.38
2022-09-07T03:23:34.027Z,0.73
2022-09-07T03:26:00.687Z,1.48
2022-09-07T03:28:27.451Z,6.13
2022-09-07T03:30:54.258Z,4.47
2022-09-07T03:33:20.917Z,3.38
2022-09-07T03:35:58.429Z,0.40
2022-09-07T03:38:25.116Z,1.42
2022-09-07T03:41:00.003Z,0.95
2022-09-07T03:43:27.708Z,0.85
2022-09-07T03:46:03.519Z,3.83
2022-09-07T03:48:31.256Z,2.20
2022-09-07T03:51:06.940Z,1.40
2022-09-07T03:53:36.314Z,1.83
2022-09-07T03:56:09.670Z,1.77
2022-09-07T03:58:36.651Z,0.95
2022-09-07T04:01:09.751Z,1.55
2022-09-07T04:03:37.327Z,1.17
2022-09-07T04:06:04.567Z,8.85
2022-09-07T04:08:33.326Z,1.25
2022-09-07T04:11:01.659Z,1.90
2022-09-07T04:13:30.169Z,3.20
2022-09-07T04:15:57.058Z,2.15
2022-09-07T04:18:24.695Z,2.50
2022-09-07T04:20:51.460Z,1.27
2022-09-07T04:23:19.331Z,1.73
2022-09-07T04:25:50.787Z,2.03
2022-09-07T04:28:19.552Z,1.05
2022-09-07T04:30:47.069Z,4.22
2022-09-07T04:33:14.524Z,3.67
2022-09-07T04:35:42.644Z,2.63
2022-09-07T04:38:13.947Z,3.40
2022-09-07T04:40:40.897Z,1.60
2022-09-07T04:43:09.443Z,3.00
2022-09-07T04:45:40.162Z,2.85
2022-09-07T04:48:07.454Z,3.15
2022-09-07T04:50:34.153Z,1.98
2022-09-07T04:53:00.838Z,2.67
2022-09-07T04:55:27.571Z,3.08
2022-09-07T04:57:54.271Z,6.63
2022-09-07T05:00:20.869Z,1.33
2022-09-07T05:02:47.684Z,4.18
2022-09-07T05:05:14.680Z,1.75
2022-09-07T05:07:41.495Z,2.35
2022-09-07T05:10:08.612Z,1.75
2022-09-07T05:12:35.344Z,3.30
2022-09-07T05:15:02.041Z,2.00
2022-09-07T05:17:30.988Z,4.35
2022-09-07T05:19:58.029Z,3.13
2022-09-07T05:22:25.822Z,2.45
2022-09-07T05:24:52.483Z,3.22
2022-09-07T05:27:19.087Z,3.08
2022-09-07T05:30:02.469Z,6.90
2022-09-07T05:32:30.487Z,7.68
2022-09-07T05:34:57.092Z,3.63
2022-09-07T05:37:24.113Z,3.67
2022-09-07T05:39:55.383Z,7.10
2022-09-07T05:42:22.740Z,5.07
2022-09-07T05:44:49.328Z,3.97
2022-09-07T05:47:16.065Z,4.97
2022-09-07T05:49:42.687Z,5.43
2022-09-07T05:52:10.128Z,4.03
2022-09-07T05:54:36.850Z,3.35
2022-09-07T05:57:04.049Z,4.85
2022-09-07T05:59:30.912Z,2.97
2022-09-07T06:01:57.702Z,4.93
2022-09-07T06:04:24.412Z,3.22
2022-09-07T06:07:19.979Z,2.42
2022-09-07T06:12:25.642Z,6.28
2022-09-07T06:14:52.228Z,3.80
2022-09-07T06:17:19.698Z,4.47
2022-09-07T06:19:46.347Z,5.85
2022-09-07T06:22:13.264Z,3.40
2022-09-07T06:24:39.877Z,3.65
2022-09-07T06:27:06.531Z,4.22
2022-09-07T06:29:33.168Z,8.10
2022-09-07T06:34:46.886Z,5.13
2022-09-07T06:37:13.998Z,11.10
2022-09-07T06:39:40.679Z,9.25
2022-09-07T06:42:07.379Z,13.55
2022-09-07T06:44:41.571Z,11.25
2022-09-07T06:47:08.139Z,8.40
2022-09-07T06:49:34.803Z,9.57
2022-09-07T06:52:02.425Z,6.78
2022-09-07T06:57:16.036Z,13.00
2022-09-07T06:59:42.656Z,10.77
2022-09-07T07:02:11.646Z,12.07
2022-09-07T07:04:41.204Z,11.40
2022-09-07T07:07:13.844Z,9.93
2022-09-07T07:09:41.368Z,8.73
2022-09-07T07:12:09.467Z,16.33
2022-09-07T07:14:38.406Z,10.23
2022-09-07T07:17:06.732Z,10.57
2022-09-07T07:19:33.348Z,9.73
2022-09-07T07:24:47.242Z,10.85
2022-09-07T07:27:14.021Z,10.60
2022-09-07T07:29:40.807Z,9.77
2022-09-07T07:32:07.586Z,13.27
2022-09-07T07:34:35.160Z,12.55
2022-09-07T07:37:01.978Z,12.68
2022-09-07T07:42:15.623Z,11.40
2022-09-07T07:44:42.406Z,12.10
2022-09-07T07:47:09.982Z,10.82
2022-09-07T07:49:36.679Z,13.13
2022-09-07T07:54:50.279Z,9.95
2022-09-07T07:57:18.868Z,8.07
2022-09-07T07:59:46.238Z,7.70
2022-09-07T08:02:16.864Z,4.28
2022-09-07T08:04:43.827Z,6.43
2022-09-07T08:07:14.339Z,6.25
2022-09-07T08:09:43.537Z,7.47
2022-09-07T08:12:13.200Z,7.28
2022-09-07T08:14:41.518Z,7.07
2022-09-07T08:17:11.105Z,6.13
2022-09-07T08:19:38.291Z,7.15
2022-09-07T08:22:05.551Z,9.02
2022-09-07T08:24:32.898Z,8.57
2022-09-07T08:26:59.656Z,6.75
2022-09-07T08:29:27.169Z,6.10
2022-09-07T08:31:54.108Z,5.72
2022-09-07T08:34:21.809Z,8.63
2022-09-07T08:36:48.567Z,8.40
2022-09-07T08:39:15.214Z,7.03
2022-09-07T08:42:00.616Z,9.65
2022-09-07T08:44:37.425Z,10.88
2022-09-07T08:47:35.029Z,8.85
2022-09-07T08:50:12.386Z,12.07
2022-09-07T08:52:49.409Z,10.55
2022-09-07T08:55:27.705Z,12.80
2022-09-07T08:58:47.782Z,10.00
2022-09-07T09:01:32.000Z,11.35
2022-09-07T09:04:16.067Z,7.38
2022-09-07T09:06:55.921Z,7.28
2022-09-07T09:09:45.467Z,11.13
2022-09-07T09:12:24.420Z,9.43
2022-09-07T09:15:02.949Z,10.82
2022-09-07T09:17:30.058Z,11.48
2022-09-07T09:20:14.980Z,10.65
2022-09-07T09:22:43.079Z,12.37
2022-09-07T09:25:30.155Z,11.52
2022-09-07T09:27:56.829Z,10.20
2022-09-07T09:30:24.567Z,8.55
2022-09-07T09:33:14.887Z,9.93
2022-09-07T09:35:43.456Z,8.30
2022-09-07T09:38:33.744Z,9.18
2022-09-07T09:41:06.199Z,9.10
2022-09-07T09:43:41.918Z,8.82
2022-09-07T09:46:27.282Z,9.68
2022-09-07T09:48:57.896Z,7.07
2022-09-07T09:54:44.582Z,10.50
2022-09-07T09:57:38.121Z,11.10
2022-09-07T10:00:10.976Z,8.32
2022-09-07T10:05:35.102Z,7.18
2022-09-07T10:08:02.647Z,15.25
2022-09-07T10:10:31.311Z,10.68
2022-09-07T10:12:58.269Z,12.60
2022-09-07T10:15:33.644Z,15.32
2022-09-07T10:18:06.143Z,20.33
2022-09-07T10:20:37.834Z,16.60
2022-09-07T10:23:06.607Z,15.50
2022-09-07T10:25:34.790Z,15.10
2022-09-07T10:28:03.892Z,13.60
2022-09-07T10:30:55.691Z,10.32
2022-09-07T10:33:34.613Z,12.65
2022-09-07T10:36:16.343Z,10.40
2022-09-07T10:38:56.059Z,10.80
2022-09-07T10:41:33.329Z,8.63
2022-09-07T10:44:02.819Z,9.73
2022-09-07T10:46:59.664Z,11.07
2022-09-07T10:50:22.042Z,12.68
2022-09-07T10:52:40.797Z,12.45
2022-09-07T10:55:15.282Z,12.38
2022-09-07T10:58:03.453Z,15.32
2022-09-07T11:01:03.291Z,12.65
2022-09-07T11:03:42.670Z,13.75
2022-09-07T11:06:16.822Z,15.23
2022-09-07T11:12:05.852Z,10.18
2022-09-07T11:14:45.710Z,13.30
2022-09-07T11:17:20.532Z,17.13
2022-09-07T11:19:53.566Z,15.65
2022-09-07T11:22:33.453Z,14.68
2022-09-07T11:25:29.434Z,11.68
2022-09-07T11:30:40.701Z,11.93
2022-09-07T11:33:07.362Z,15.88
2022-09-07T11:35:45.909Z,12.10
2022-09-07T11:38:33.904Z,10.80
2022-09-07T11:41:18.783Z,14.32
2022-09-07T11:43:50.606Z,13.43
2022-09-07T11:46:45.493Z,17.23
2022-09-07T11:49:24.646Z,16.50
2022-09-07T11:52:15.843Z,17.85
2022-09-07T11:54:55.817Z,16.98
2022-09-07T11:57:41.335Z,17.90
2022-09-07T12:00:12.994Z,14.35
2022-09-07T12:02:59.943Z,17.25
2022-09-07T12:05:36.372Z,24.20
2022-09-07T12:08:40.662Z,26.08
2022-09-07T12:11:24.895Z,18.75
2022-09-07T12:14:18.680Z,19.85
2022-09-07T12:17:23.566Z,18.25
2022-09-07T12:20:11.003Z,15.15
2022-09-07T12:22:38.021Z,17.65
2022-09-07T12:25:09.474Z,14.57
2022-09-07T12:27:38.132Z,9.82
2022-09-07T12:30:04.856Z,11.57
2022-09-07T12:32:55.331Z,16.48
2022-09-07T12:35:29.874Z,9.27
2022-09-07T12:38:17.904Z,11.38
2022-09-07T12:40:49.285Z,9.50
2022-09-07T12:43:15.798Z,7.10
2022-09-07T12:45:42.331Z,7.78
2022-09-07T12:48:15.505Z,5.65
2022-09-07T12:51:07.323Z,12.75
2022-09-07T12:54:04.153Z,8.10
2022-09-07T12:56:45.191Z,10.43
2022-09-07T12:59:30.656Z,11.20
2022-09-07T13:02:20.834Z,10.77
2022-09-07T13:05:14.425Z,14.45
2022-09-07T13:08:08.218Z,12.85
2022-09-07T13:10:42.589Z,9.02
2022-09-07T13:13:15.330Z,11.00
2022-09-07T13:16:12.098Z,16.92
2022-09-07T13:18:41.588Z,13.85
2022-09-07T13:21:08.111Z,13.07
2022-09-07T13:23:35.719Z,9.02
2022-09-07T13:26:04.957Z,9.57
2022-09-07T13:28:36.770Z,10.57
2022-09-07T13:31:45.499Z,9.45
2022-09-07T13:34:45.578Z,12.90
2022-09-07T13:37:22.450Z,9.32
2022-09-07T13:39:52.585Z,12.60
2022-09-07T13:42:25.557Z,9.77
2022-09-07T13:44:56.193Z,10.45
2022-09-07T13:47:33.417Z,9.18
2022-09-07T13:50:24.101Z,11.73
2022-09-07T13:53:12.300Z,7.22
2022-09-07T13:55:45.317Z,9.43
2022-09-07T13:58:35.449Z,10.20
2022-09-07T14:01:06.111Z,6.55
2022-09-07T14:03:51.290Z,4.60
2022-09-07T14:06:20.925Z,8.00
2022-09-07T14:08:50.078Z,6.05
2022-09-07T14:11:21.339Z,4.90
2022-09-07T14:14:09.757Z,8.38
2022-09-07T14:16:37.063Z,11.45
2022-09-07T14:19:11.364Z,8.95
2022-09-07T14:21:38.861Z,8.98
2022-09-07T14:24:20.392Z,7.07
2022-09-07T14:26:48.713Z,9.25
2022-09-07T14:29:24.400Z,7.60
2022-09-07T14:34:22.910Z,7.38
2022-09-07T14:36:51.246Z,7.03
2022-09-07T14:39:22.118Z,8.95
2022-09-07T14:41:49.874Z,7.15
2022-09-07T14:44:31.877Z,6.28
2022-09-07T14:47:19.777Z,7.75
2022-09-07T14:49:53.467Z,8.13
2022-09-07T14:52:27.213Z,10.27
2022-09-07T14:54:53.825Z,6.50
2022-09-07T14:57:30.356Z,4.35
2022-09-07T14:59:58.815Z,4.72
2022-09-07T15:02:33.247Z,4.82
2022-09-07T15:05:15.134Z,6.47
2022-09-07T15:07:56.498Z,4.05
2022-09-07T15:10:23.562Z,2.92
2022-09-07T15:13:01.432Z,2.55
2022-09-07T15:15:34.440Z,3.53
2022-09-07T15:18:08.751Z,3.70
2022-09-07T15:20:42.917Z,2.47
2022-09-07T15:23:12.146Z,11.15
2022-09-07T15:25:40.635Z,3.55
2022-09-07T15:28:14.047Z,2.05
2022-09-07T15:30:41.984Z,2.08
2022-09-07T15:33:08.915Z,3.00
2022-09-07T15:35:35.490Z,5.60
2022-09-07T15:38:04.377Z,3.38
2022-09-07T15:41:03.872Z,2.28
2022-09-07T15:43:29.162Z,2.85
2022-09-07T15:45:55.815Z,3.63
2022-09-07T15:48:25.334Z,3.45
2022-09-07T15:51:00.977Z,1.23
2022-09-07T15:56:16.073Z,3.47
2022-09-07T15:58:45.565Z,3.00
2022-09-07T16:03:59.392Z,2.28
2022-09-07T16:06:26.393Z,2.63
2022-09-07T16:08:53.747Z,5.25
2022-09-07T16:11:25.749Z,2.13
2022-09-07T16:14:02.011Z,3.55
2022-09-07T16:19:20.491Z,1.88
2022-09-07T16:21:47.708Z,1.48
2022-09-07T16:24:14.524Z,1.83
2022-09-07T16:26:41.131Z,1.83
2022-09-07T16:29:07.989Z,1.73
2022-09-07T16:31:35.382Z,1.85
2022-09-07T16:34:03.350Z,2.38
2022-09-07T16:36:30.630Z,3.67
2022-09-07T16:38:59.651Z,3.85
2022-09-07T16:41:30.909Z,3.90
2022-09-07T16:43:58.676Z,1.30
2022-09-07T16:46:27.680Z,0.82
2022-09-07T16:48:55.133Z,1.15
2022-09-07T16:51:22.911Z,2.38
2022-09-07T16:53:51.280Z,2.80
2022-09-07T16:56:20.293Z,1.92
2022-09-07T16:58:56.720Z,1.80
2022-09-07T17:01:28.663Z,1.42
2022-09-07T17:03:55.737Z,0.85
2022-09-07T17:06:24.852Z,1.45
2022-09-07T17:08:52.764Z,1.25
2022-09-07T17:11:22.968Z,2.80
2022-09-07T17:13:51.518Z,1.55
2022-09-07T17:16:21.830Z,2.80
2022-09-07T17:21:38.258Z,1.85
2022-09-07T17:24:06.777Z,2.90
2022-09-07T17:26:33.802Z,3.88
2022-09-07T17:29:01.215Z,1.35
2022-09-07T17:34:17.416Z,3.08
2022-09-07T17:36:43.971Z,2.05
2022-09-07T17:39:14.950Z,2.25
2022-09-07T17:41:43.610Z,1.48
2022-09-07T17:44:10.276Z,1.17
2022-09-07T17:46:36.864Z,0.88
2022-09-07T17:49:04.098Z,1.00
2022-09-07T17:51:32.225Z,2.35
2022-09-07T17:54:03.791Z,1.98
2022-09-07T17:56:31.817Z,2.05
2022-09-07T18:01:45.856Z,0.70
2022-09-07T18:04:13.071Z,1.05
2022-09-07T18:06:40.969Z,1.27
2022-09-07T18:09:07.528Z,2.65
2022-09-07T18:11:50.545Z,1.27
2022-09-07T18:14:18.897Z,2.90
2022-09-07T18:16:48.823Z,2.03
2022-09-07T18:19:15.746Z,1.15
2022-09-07T18:21:43.517Z,2.88
2022-09-07T18:24:22.784Z,4.15
2022-09-07T18:26:52.582Z,1.85
2022-09-07T18:29:32.831Z,1.85
2022-09-07T18:32:08.285Z,5.10
2022-09-07T18:37:03.004Z,1.55
2022-09-07T18:39:29.697Z,2.90
2022-09-07T18:41:56.748Z,2.80
2022-09-07T18:47:21.467Z,1.70
2022-09-07T18:49:50.157Z,2.08
2022-09-07T18:55:06.988Z,0.85
2022-09-07T18:57:34.128Z,10.38
2022-09-07T19:00:00.930Z,1.38
2022-09-07T19:02:27.529Z,5.63
2022-09-07T19:07:41.219Z,3.55
2022-09-07T19:10:08.051Z,2.55
2022-09-07T19:12:34.874Z,1.98
2022-09-07T19:15:01.382Z,3.70
2022-09-07T19:17:28.158Z,6.28
2022-09-07T19:19:54.695Z,2.05
2022-09-07T19:22:21.350Z,2.70
2022-09-07T19:24:48.179Z,1.85
2022-09-07T19:27:14.864Z,2.97
2022-09-07T19:29:41.402Z,2.15
2022-09-07T19:32:08.038Z,4.18
2022-09-07T19:34:43.277Z,1.30
2022-09-07T19:37:11.850Z,4.30
2022-09-07T19:39:38.500Z,2.15
2022-09-07T19:42:06.099Z,2.63
2022-09-07T19:44:32.740Z,2.42
2022-09-07T19:47:00.420Z,3.13
2022-09-07T19:49:27.852Z,5.55
2022-09-07T19:51:54.694Z,2.50
2022-09-07T19:54:21.432Z,3.85
2022-09-07T19:56:48.081Z,1.40
2022-09-07T19:59:14.650Z,1.13
2022-09-07T20:01:46.043Z,1.50
2022-09-07T20:04:19.706Z,3.75
2022-09-07T20:06:48.020Z,4.38
2022-09-07T20:09:14.589Z,1.90
2022-09-07T20:11:46.116Z,1.20
2022-09-07T20:14:14.033Z,3.33
2022-09-07T20:16:41.513Z,4.43
2022-09-07T20:19:10.647Z,1.55
2022-09-07T20:21:37.150Z,3.85
2022-09-07T20:24:04.442Z,1.45
2022-09-07T20:26:32.215Z,1.45
2022-09-07T20:29:16.839Z,2.15
2022-09-07T20:31:47.224Z,2.75
2022-09-07T20:34:14.252Z,1.60
2022-09-07T20:36:40.889Z,5.25
2022-09-07T20:39:07.847Z,2.65
2022-09-07T20:41:34.858Z,3.72
2022-09-07T20:44:03.392Z,1.95
2022-09-07T20:46:30.972Z,2.55
2022-09-07T20:48:58.404Z,4.72
2022-09-07T20:51:25.916Z,2.33
2022-09-07T20:53:52.599Z,2.50
2022-09-07T20:56:22.322Z,1.92
2022-09-07T20:58:54.752Z,4.45
2022-09-07T21:01:22.045Z,3.03
2022-09-07T21:03:52.028Z,5.93
2022-09-07T21:06:20.612Z,4.18
2022-09-07T21:08:48.163Z,9.68
2022-09-07T21:11:27.082Z,2.70
2022-09-07T21:13:59.276Z,1.65
2022-09-07T21:16:26.819Z,4.88
2022-09-07T21:18:58.812Z,1.02
2022-09-07T21:21:27.095Z,5.47
2022-09-07T21:23:59.287Z,1.95
2022-09-07T21:26:28.141Z,6.05
2022-09-07T21:28:59.213Z,2.67
2022-09-07T21:31:26.733Z,1.80
2022-09-07T21:33:55.830Z,2.55
2022-09-07T21:36:23.168Z,2.45
2022-09-07T21:38:50.385Z,3.40
2022-09-07T21:41:19.277Z,4.95
2022-09-07T21:43:46.344Z,1.90
2022-09-07T21:46:19.142Z,1.73
2022-09-07T21:48:45.950Z,1.77
2022-09-07T21:51:14.090Z,2.35
2022-09-07T21:53:41.454Z,3.35
2022-09-07T21:56:13.163Z,3.75
2022-09-07T21:58:40.204Z,1.55
2022-09-07T22:01:10.912Z,2.33
2022-09-07T22:03:39.201Z,1.88
2022-09-07T22:06:06.496Z,2.13
2022-09-07T22:08:35.759Z,1.58
2022-09-07T22:11:11.406Z,1.65
2022-09-07T22:13:38.081Z,3.92
2022-09-07T22:16:06.128Z,7.88
2022-09-07T22:18:32.921Z,4.43
2022-09-07T22:21:10.170Z,4.25
2022-09-07T22:23:46.110Z,6.07
2022-09-07T22:26:14.055Z,4.15
2022-09-07T22:28:41.067Z,11.23
2022-09-07T22:31:18.789Z,4.80
2022-09-07T22:33:47.330Z,7.03
2022-09-07T22:36:26.108Z,4.50
2022-09-07T22:38:54.973Z,13.57
2022-09-07T22:41:26.975Z,6.10
2022-09-07T22:43:53.768Z,8.13
2022-09-07T22:46:23.033Z,9.88
2022-09-07T22:48:50.167Z,6.65
2022-09-07T22:51:17.304Z,5.82
2022-09-07T22:53:44.179Z,4.43
2022-09-07T22:56:18.526Z,9.15
2022-09-07T22:58:50.485Z,8.27
2022-09-07T23:01:17.785Z,5.97
2022-09-07T23:03:45.173Z,8.23
2022-09-07T23:06:23.849Z,11.65
2022-09-07T23:08:51.908Z,9.98
2022-09-07T23:11:18.801Z,10.95
2022-09-07T23:13:45.660Z,7.30
2022-09-07T23:16:13.107Z,5.60
2022-09-07T23:18:42.808Z,9.23
2022-09-07T23:21:10.604Z,8.98
2022-09-07T23:23:38.040Z,10.40
2022-09-07T23:26:05.337Z,8.93
2022-09-07T23:28:32.801Z,7.13
2022-09-07T23:30:59.478Z,12.57
2022-09-07T23:33:27.027Z,8.57
2022-09-07T23:36:03.768Z,8.20
2022-09-07T23:38:30.969Z,11.43
2022-09-07T23:40:59.130Z,14.77
2022-09-07T23:43:27.256Z,9.70
2022-09-07T23:45:54.803Z,18.00
2022-09-07T23:48:22.455Z,12.43
2022-09-07T23:50:49.796Z,12.50
2022-09-07T23:53:17.872Z,16.15
2022-09-07T23:55:45.205Z,16.15
2022-09-07T23:58:11.967Z,10.48
